Adelphi, Ohio
Current Conditions -  °F | °C
As of 5:34 PM on Monday 24 Nov 2014 (Local Time) from KRZT Reporting Station
Broken Clouds Broken Clouds  
Wind Chill: 38°   Ceiling: 3900
Heat Index: 45°   Visibility: 10mi
Dew Point: 32°   Wind: 15mph
Humidity: 61%   Direction: 270°W
Pressure: 29.75"   Gusts: 18mph
Location:  39.47°N, 82.75°W
Report Text: KRZT 242234Z AUTO 27013G16KT 10SM BKN039 07/00 A2975 RMK AO2
Loading
Personal Weather Stations






























Interactive Weather Map New forecast layout! Learn more

10-Day Weather Forecast

Advertisements
Track Severe Weather on mobile